• Join FlightAware (Why Join?)
  • Login
  • US Flag 
02:13AM EDT


 

Airport Tracker/Info


-or-


 

Live Flight TrackerFlight Track Log ✈ SKW6306 ✈ 21-Jun-2013 ✈ KDEN - CYXE

Flight Track Log - Related Links

Times and Time Zones

All times are in EDT time to prevent confusion due to time zone crossing. See the SKW6306 flight status page for this flight to view local times or setup timezone preferences in your user account.

Time Position Orientation Groundspeed Altitude Reporting Facility
EDT Latitude Longitude Course Direction KTS MPH feet Rate Location/Type
03:35PM 39.8333 -104.7667 348° North 201 231 6,300  Level Denver TRACON
03:35PM 39.8667 -104.8167 311° West 225 259 7,900 1,680 Climbing Denver TRACON
03:37PM 40.2111 -104.7850 347° North  Level FlightAware Approximate
03:37PM 39.9167 -104.8833 314° West 264 304 9,700  Level Denver TRACON
03:38PM 40.3322 -104.8219 346° North  Level FlightAware Approximate
03:38PM 40.0000 -104.8833 360° North 301 346 10,800  Level Denver TRACON
03:38PM 40.0833 -104.8833 360° North 317 365 12,000 1,440 Climbing Denver TRACON
03:39PM 40.4527 -104.8620 346° North  Level FlightAware Approximate
03:40PM 40.5737 -104.8996 348° North  Level FlightAware Approximate
03:40PM 40.2058 -104.8775 North 329 379 14,200  Level Denver Center
03:41PM 40.3067 -104.8728 North 333 383 15,800 1,380 Climbing Denver Center
03:42PM 40.4044 -104.8678 North 349 402 17,100 1,200 Climbing Denver Center
03:43PM 40.5053 -104.8644 North 363 418 18,300 1,200 Climbing Denver Center
03:44PM 40.6147 -104.8594 North 366 421 19,600 1,020 Climbing Denver Center
03:45PM 40.7192 -104.8569 North 374 430 20,500 960 Climbing Denver Center
03:46PM 40.8256 -104.8678 356° North 373 429 21,600 1,020 Climbing Denver Center
03:47PM 40.9256 -104.9192 339° North 384 442 22,700 900 Climbing Denver Center
03:48PM 41.0442 -104.9489 349° North 391 450 23,500 720 Climbing Denver Center
03:49PM 41.1497 -104.9719 351° North 399 459 24,300 780 Climbing Denver Center
03:50PM 41.2747 -104.9989 351° North 405 466 25,200 840 Climbing Denver Center
03:51PM 41.3831 -105.0206 351° North 411 473 26,100 900 Climbing Denver Center
03:52PM 41.5103 -105.0483 351° North 413 475 27,100 720 Climbing Denver Center
03:53PM 41.6192 -105.0728 350° North 413 475 27,600 540 Climbing Denver Center
03:54PM 41.7511 -105.1008 351° North 426 490 28,300 720 Climbing Denver Center
03:55PM 41.8619 -105.1228 352° North 423 487 29,100 540 Climbing Denver Center
03:56PM 41.9719 -105.1469 351° North 417 480 29,500 360 Climbing Denver Center
03:57PM 42.1033 -105.1756 351° North 426 490 29,900 420 Climbing Denver Center
03:58PM 42.2175 -105.1989 351° North 430 495 30,400 540 Climbing Denver Center
03:59PM 42.3517 -105.2281 351° North 434 499 31,100 540 Climbing Denver Center
04:01PM 42.5631 -105.2750 351° North 435 501 32,000 300 Climbing Salt Lake Center
04:02PM 42.6794 -105.2994 351° North 437 503 32,000  Level Salt Lake Center
04:04PM 42.8578 -105.3394 351° North 451 519 32,000  Level Denver Center
04:05PM 42.9817 -105.3650 351° North 464 534 32,000  Level Denver Center
04:06PM 43.1058 -105.3922 351° North 468 539 32,000  Level Denver Center
04:07PM 43.2511 -105.4247 351° North 472 543 32,000  Level Denver Center
04:08PM 43.3781 -105.4514 351° North 478 550 32,000  Level Denver Center
04:09PM 43.5253 -105.4844 351° North 479 551 32,000  Level Denver Center
04:10PM 43.6525 -105.5128 351° North 481 554 32,000  Level Denver Center
04:11PM 43.8011 -105.5467 351° North 482 555 32,000  Level Denver Center
04:12PM 43.9286 -105.5744 351° North 484 557 32,000  Level Denver Center
04:13PM 44.0778 -105.6086 351° North 485 558 32,000  Level Denver Center
04:14PM 44.2069 -105.6386 351° North 488 562 32,000  Level Denver Center
04:15PM 44.3586 -105.6731 351° North 492 566 32,000  Level Denver Center
04:16PM 44.4458 -105.6944 350° North 493 567 32,000  Level Salt Lake Center
04:17PM 44.5989 -105.7289 351° North 497 572 32,000  Level Salt Lake Center
04:18PM 44.7292 -105.7594 351° North 497 572 32,000  Level Salt Lake Center
04:19PM 44.8822 -105.7936 351° North 498 573 32,000  Level Salt Lake Center
04:20PM 45.0136 -105.8247 350° North 499 574 32,000  Level Salt Lake Center
04:21PM 45.1667 -105.8617 350° North 500 575 32,000  Level Salt Lake Center
04:22PM 45.2975 -105.8908 351° North 499 574 32,000 -60 Level Salt Lake Center
04:23PM 45.4342 -105.9244 350° North 499 574 31,900  Descending Salt Lake Center
04:24PM 45.5719 -105.9583 350° North 501 577 32,000  Climbing Salt Lake Center
04:25PM 45.7094 -105.9900 351° North 501 577 32,000  Level Salt Lake Center
04:26PM 45.8456 -106.0222 351° North 499 574 32,000  Level Salt Lake Center
04:27PM 46.0111 -106.0608 351° North 500 575 32,000  Level Salt Lake Center
04:28PM 46.1494 -106.0942 351° North 501 577 32,000  Level Salt Lake Center
04:29PM 46.2881 -106.1283 350° North 502 578 32,000  Level Salt Lake Center
04:30PM 46.4264 -106.1631 350° North 503 579 32,000  Level Salt Lake Center
04:31PM 46.5667 -106.1986 350° North 506 582 32,000  Level Salt Lake Center
04:32PM 46.7039 -106.2339 350° North 505 581 32,000  Level Salt Lake Center
04:33PM 46.8436 -106.2692 350° North 506 582 32,000  Level Salt Lake Center
04:34PM 47.0119 -106.3136 350° North 508 585 32,000  Level Salt Lake Center
04:35PM 47.1528 -106.3492 350° North 510 587 32,000  Level Salt Lake Center
04:36PM 47.2942 -106.3847 350° North 512 589 32,000  Level Salt Lake Center
04:37PM 47.4381 -106.4228 350° North 517 595 32,000  Level Salt Lake Center
04:38PM 47.5817 -106.4594 350° North 520 598 32,000  Level Salt Lake Center
04:39PM 47.7247 -106.4964 350° North 521 600 32,000  Level Salt Lake Center
04:40PM 47.8681 -106.5353 350° North 522 601 32,000  Level Salt Lake Center
04:42PM 48.0422 -106.5803 350° North 525 604 32,000  Level Salt Lake Center
04:43PM 48.1869 -106.6172 350° North 527 606 32,000  Level Salt Lake Center
04:44PM 48.3244 -106.6800 343° North 520 598 32,000  Level Salt Lake Center
04:45PM 48.4608 -106.7483 342° North 517 595 32,000  Level Salt Lake Center
04:46PM 48.5978 -106.8150 342° North 517 595 32,000  Level Salt Lake Center
04:47PM 48.7333 -106.8833 342° North 516 594 32,000  Level Salt Lake Center
04:48PM 48.8681 -106.9497 342° North 512 589 32,000  Level Salt Lake Center
04:49PM 48.9833 -107.0500 330° Northwest 500 575 32,000  Level Winnipeg Center
04:50PM 49.1000 -107.1000 344° North 500 575 32,000  Level Winnipeg Center
04:51PM 49.2500 -107.1833 340° North 500 575 32,000  Level Winnipeg Center
04:52PM 49.3833 -107.2333 346° North 490 564 32,000  Level Winnipeg Center
04:53PM 49.4833 -107.3167 332° Northwest 490 564 32,000  Level Winnipeg Center
04:54PM 49.6333 -107.3667 348° North 490 564 32,000  Level Winnipeg Center
04:55PM 49.7500 -107.4500 335° Northwest 490 564 32,000  Level Winnipeg Center
04:56PM 49.8700 -107.5020 344° North  Level FlightAware Approximate
04:56PM 49.9000 -107.5000 344° North 490 564 32,000  Level Winnipeg Center
04:57PM 50.0000 -107.5833 332° Northwest 480 552 32,000  Level Winnipeg Center
04:58PM 50.1500 -107.6500 344° North 480 552 32,000  Level Winnipeg Center
04:59PM 50.2667 -107.7000 345° North 480 552 32,000  Level Winnipeg Center
05:00PM 50.4000 -107.7000 360° North 480 552 32,000 -240 Level Winnipeg Center
05:01PM 50.5231 -107.6693 North  Level FlightAware Approximate
05:03PM 50.8000 -107.6667 North 490 564 31,200  Level Winnipeg Center
05:04PM 50.9500 -107.6500 North 500 575 30,500 -1,260 Descending Winnipeg Center
05:05PM 51.0833 -107.5667 21° North 500 575 28,700 -2,160 Descending Winnipeg Center
05:06PM 51.2000 -107.5167 15° North 480 552 26,200 -2,580 Descending Winnipeg Center
05:07PM 51.3167 -107.4667 15° North 450 518 23,600 -2,760 Descending Winnipeg Center
05:08PM 51.3926 -107.5614 North  Level FlightAware Approximate
05:08PM 51.4333 -107.3833 24° Northeast 430 495 20,700  Level Winnipeg Center
05:09PM 51.5168 -107.5473 North  Level FlightAware Approximate
05:09PM 51.5500 -107.3333 15° North 410 472 18,100  Level Winnipeg Center
05:10PM 51.6500 -107.2667 22° Northeast 390 449 15,400 -2,700 Descending Winnipeg Center
05:11PM 51.7333 -107.2000 26° Northeast 380 437 12,800 -2,460 Descending Winnipeg Center
05:12PM 51.8333 -107.1667 12° North 370 426 10,500 -1,740 Descending Winnipeg Center
05:13PM 51.9167 -107.1167 20° North 320 368 9,400 -1,140 Descending Winnipeg Center
05:14PM 51.9833 -107.0667 25° Northeast 290 334 8,300 -1,200 Descending Winnipeg Center
05:15PM 52.0833 -107.0333 12° North 290 334 7,000 -1,500 Descending Winnipeg Center
05:16PM 52.1500 -107.0000 17° North 270 311 5,300 -1,740 Descending Winnipeg Center